Hudson Bay, Canada
Current Conditions -  °F | °C
As of 8:00 PM on Friday 21 Nov 2014 (Local Time) from CYBU Reporting Station
Overcast Overcast  
Wind Chill: 21°   Ceiling: 1200
Heat Index: 27°   Visibility: 9mi
Dew Point: 25°   Wind: 5mph
Humidity: 93%   Direction: 330°NNW
Pressure: 29.58"   Gusts: NA
Location:  52.86°N, 102.39°W
Report Text: CYBU 220200Z AUTO 33004KT 9SM OVC012 M03/M04 A2958 RMK SLP039
Loading
Personal Weather Stations






























Interactive Weather Map New forecast layout! Learn more

10-Day Weather Forecast

Advertisements
Track Severe Weather on mobile